sensor_id;sensor_type;location;lat;lon;timestamp;P1;durP1;ratioP1;P2;durP2;ratioP2
4597;SDS011;2311;48.646;8.906;2022-07-01T00:04:49;3.53;;;1.80;;
4597;SDS011;2311;48.646;8.906;2022-07-01T00:10:08;3.07;;;1.70;;
4597;SDS011;2311;48.646;8.906;2022-07-01T00:15:08;3.17;;;1.50;;
4597;SDS011;2311;48.646;8.906;2022-07-01T00:20:10;2.50;;;1.60;;
4597;SDS011;2311;48.646;8.906;2022-07-01T00:25:10;3.77;;;1.80;;
4597;SDS011;2311;48.646;8.906;2022-07-01T00:30:11;5.10;;;1.67;;
4597;SDS011;2311;48.646;8.906;2022-07-01T00:35:12;10.40;;;1.80;;
4597;SDS011;2311;48.646;8.906;2022-07-01T00:40:12;6.00;;;1.40;;
4597;SDS011;2311;48.646;8.906;2022-07-01T00:45:12;3.83;;;1.40;;
4597;SDS011;2311;48.646;8.906;2022-07-01T00:50:14;2.63;;;1.20;;
4597;SDS011;2311;48.646;8.906;2022-07-01T00:55:15;2.27;;;1.40;;
4597;SDS011;2311;48.646;8.906;2022-07-01T01:00:16;2.70;;;1.37;;
4597;SDS011;2311;48.646;8.906;2022-07-01T01:05:22;3.07;;;1.40;;
4597;SDS011;2311;48.646;8.906;2022-07-01T01:10:22;2.80;;;1.37;;
4597;SDS011;2311;48.646;8.906;2022-07-01T01:15:25;2.57;;;1.47;;
4597;SDS011;2311;48.646;8.906;2022-07-01T01:20:31;2.40;;;1.50;;
4597;SDS011;2311;48.646;8.906;2022-07-01T01:25:33;2.37;;;1.57;;
4597;SDS011;2311;48.646;8.906;2022-07-01T01:30:34;2.73;;;1.43;;
4597;SDS011;2311;48.646;8.906;2022-07-01T01:35:35;2.20;;;1.40;;
4597;SDS011;2311;48.646;8.906;2022-07-01T01:40:36;3.10;;;1.60;;
4597;SDS011;2311;48.646;8.906;2022-07-01T01:45:36;3.37;;;1.50;;
4597;SDS011;2311;48.646;8.906;2022-07-01T01:50:37;2.60;;;1.50;;
4597;SDS011;2311;48.646;8.906;2022-07-01T01:55:37;2.80;;;1.57;;
4597;SDS011;2311;48.646;8.906;2022-07-01T02:00:38;2.93;;;1.37;;
4597;SDS011;2311;48.646;8.906;2022-07-01T02:05:38;3.60;;;1.40;;
4597;SDS011;2311;48.646;8.906;2022-07-01T02:10:38;3.10;;;1.50;;
4597;SDS011;2311;48.646;8.906;2022-07-01T02:15:39;3.90;;;1.67;;
4597;SDS011;2311;48.646;8.906;2022-07-01T02:20:39;4.80;;;1.83;;
4597;SDS011;2311;48.646;8.906;2022-07-01T02:25:41;3.37;;;1.67;;
4597;SDS011;2311;48.646;8.906;2022-07-01T02:30:41;3.43;;;2.17;;
4597;SDS011;2311;48.646;8.906;2022-07-01T02:35:42;2.87;;;1.87;;
4597;SDS011;2311;48.646;8.906;2022-07-01T02:40:42;3.00;;;1.93;;
4597;SDS011;2311;48.646;8.906;2022-07-01T02:45:43;3.00;;;2.07;;
4597;SDS011;2311;48.646;8.906;2022-07-01T02:50:43;4.33;;;2.37;;
4597;SDS011;2311;48.646;8.906;2022-07-01T02:55:44;5.97;;;2.20;;
4597;SDS011;2311;48.646;8.906;2022-07-01T03:00:44;5.50;;;2.47;;
4597;SDS011;2311;48.646;8.906;2022-07-01T03:05:44;4.40;;;2.60;;
4597;SDS011;2311;48.646;8.906;2022-07-01T03:10:47;3.53;;;2.37;;
4597;SDS011;2311;48.646;8.906;2022-07-01T03:15:47;4.80;;;2.73;;
4597;SDS011;2311;48.646;8.906;2022-07-01T03:20:48;3.73;;;2.40;;
4597;SDS011;2311;48.646;8.906;2022-07-01T03:25:49;4.07;;;2.70;;
4597;SDS011;2311;48.646;8.906;2022-07-01T03:30:49;3.63;;;2.40;;
4597;SDS011;2311;48.646;8.906;2022-07-01T03:35:50;4.17;;;2.80;;
4597;SDS011;2311;48.646;8.906;2022-07-01T03:40:50;3.70;;;2.50;;
4597;SDS011;2311;48.646;8.906;2022-07-01T03:45:50;4.07;;;2.40;;
4597;SDS011;2311;48.646;8.906;2022-07-01T03:50:51;4.27;;;2.00;;
4597;SDS011;2311;48.646;8.906;2022-07-01T03:55:51;3.27;;;2.00;;
4597;SDS011;2311;48.646;8.906;2022-07-01T04:00:52;2.80;;;1.90;;
4597;SDS011;2311;48.646;8.906;2022-07-01T04:05:52;2.80;;;2.00;;
4597;SDS011;2311;48.646;8.906;2022-07-01T04:10:53;3.93;;;2.07;;
4597;SDS011;2311;48.646;8.906;2022-07-01T04:15:55;2.60;;;1.90;;
4597;SDS011;2311;48.646;8.906;2022-07-01T04:20:55;6.23;;;1.70;;
4597;SDS011;2311;48.646;8.906;2022-07-01T04:26:14;4.23;;;1.80;;
4597;SDS011;2311;48.646;8.906;2022-07-01T04:31:17;2.30;;;1.47;;
4597;SDS011;2311;48.646;8.906;2022-07-01T04:36:17;2.40;;;1.50;;
4597;SDS011;2311;48.646;8.906;2022-07-01T04:41:18;2.47;;;1.50;;
4597;SDS011;2311;48.646;8.906;2022-07-01T04:46:37;3.27;;;1.20;;
4597;SDS011;2311;48.646;8.906;2022-07-01T04:51:37;2.23;;;1.37;;
4597;SDS011;2311;48.646;8.906;2022-07-01T04:56:37;8.73;;;1.70;;
4597;SDS011;2311;48.646;8.906;2022-07-01T05:01:38;2.10;;;1.40;;
4597;SDS011;2311;48.646;8.906;2022-07-01T05:06:39;2.00;;;1.30;;
4597;SDS011;2311;48.646;8.906;2022-07-01T05:11:40;6.23;;;1.47;;
4597;SDS011;2311;48.646;8.906;2022-07-01T05:16:40;2.50;;;1.30;;
4597;SDS011;2311;48.646;8.906;2022-07-01T05:21:41;1.93;;;1.20;;
4597;SDS011;2311;48.646;8.906;2022-07-01T05:26:56;2.17;;;1.30;;
4597;SDS011;2311;48.646;8.906;2022-07-01T05:31:57;2.17;;;1.47;;
4597;SDS011;2311;48.646;8.906;2022-07-01T05:36:58;1.83;;;0.93;;
4597;SDS011;2311;48.646;8.906;2022-07-01T05:41:58;2.00;;;1.30;;
4597;SDS011;2311;48.646;8.906;2022-07-01T05:46:58;3.80;;;1.17;;
4597;SDS011;2311;48.646;8.906;2022-07-01T05:51:59;1.80;;;1.10;;
4597;SDS011;2311;48.646;8.906;2022-07-01T05:56:59;1.73;;;1.03;;
4597;SDS011;2311;48.646;8.906;2022-07-01T06:01:59;2.57;;;1.00;;
4597;SDS011;2311;48.646;8.906;2022-07-01T06:07:00;1.90;;;1.20;;
4597;SDS011;2311;48.646;8.906;2022-07-01T06:12:00;2.13;;;1.30;;
4597;SDS011;2311;48.646;8.906;2022-07-01T06:17:01;2.43;;;1.23;;
4597;SDS011;2311;48.646;8.906;2022-07-01T06:22:01;3.43;;;1.40;;
4597;SDS011;2311;48.646;8.906;2022-07-01T06:27:02;3.07;;;1.27;;
4597;SDS011;2311;48.646;8.906;2022-07-01T06:32:04;1.63;;;1.10;;
4597;SDS011;2311;48.646;8.906;2022-07-01T06:37:06;2.07;;;1.13;;
4597;SDS011;2311;48.646;8.906;2022-07-01T06:42:06;7.07;;;5.40;;
4597;SDS011;2311;48.646;8.906;2022-07-01T06:47:07;2.73;;;1.50;;
4597;SDS011;2311;48.646;8.906;2022-07-01T06:52:07;2.10;;;1.40;;
4597;SDS011;2311;48.646;8.906;2022-07-01T06:57:07;2.23;;;1.30;;
4597;SDS011;2311;48.646;8.906;2022-07-01T07:02:08;2.23;;;1.40;;
4597;SDS011;2311;48.646;8.906;2022-07-01T07:07:08;2.30;;;1.47;;
4597;SDS011;2311;48.646;8.906;2022-07-01T07:12:09;3.60;;;1.70;;
4597;SDS011;2311;48.646;8.906;2022-07-01T07:17:10;2.33;;;1.30;;
4597;SDS011;2311;48.646;8.906;2022-07-01T07:22:10;2.87;;;1.30;;
4597;SDS011;2311;48.646;8.906;2022-07-01T07:27:10;2.43;;;1.57;;
4597;SDS011;2311;48.646;8.906;2022-07-01T07:32:11;3.60;;;1.30;;
4597;SDS011;2311;48.646;8.906;2022-07-01T07:37:11;2.10;;;1.27;;
4597;SDS011;2311;48.646;8.906;2022-07-01T07:42:12;3.80;;;2.00;;
4597;SDS011;2311;48.646;8.906;2022-07-01T07:47:13;3.10;;;2.10;;
4597;SDS011;2311;48.646;8.906;2022-07-01T07:52:14;3.03;;;2.00;;
4597;SDS011;2311;48.646;8.906;2022-07-01T07:57:14;2.20;;;1.50;;
4597;SDS011;2311;48.646;8.906;2022-07-01T08:02:14;2.47;;;1.40;;
4597;SDS011;2311;48.646;8.906;2022-07-01T08:07:15;2.80;;;1.50;;
4597;SDS011;2311;48.646;8.906;2022-07-01T08:12:16;2.70;;;1.57;;
4597;SDS011;2311;48.646;8.906;2022-07-01T08:17:16;2.50;;;1.60;;
4597;SDS011;2311;48.646;8.906;2022-07-01T08:22:17;2.80;;;1.40;;
4597;SDS011;2311;48.646;8.906;2022-07-01T08:27:17;2.80;;;1.70;;
4597;SDS011;2311;48.646;8.906;2022-07-01T08:32:18;2.13;;;1.47;;
4597;SDS011;2311;48.646;8.906;2022-07-01T08:37:19;2.57;;;1.50;;
4597;SDS011;2311;48.646;8.906;2022-07-01T08:42:19;3.80;;;1.40;;
4597;SDS011;2311;48.646;8.906;2022-07-01T08:47:20;2.17;;;1.37;;
4597;SDS011;2311;48.646;8.906;2022-07-01T08:52:20;5.83;;;1.80;;
4597;SDS011;2311;48.646;8.906;2022-07-01T08:57:21;2.90;;;1.70;;
4597;SDS011;2311;48.646;8.906;2022-07-01T09:02:22;2.03;;;1.20;;
4597;SDS011;2311;48.646;8.906;2022-07-01T09:07:30;2.63;;;1.70;;
4597;SDS011;2311;48.646;8.906;2022-07-01T09:12:39;2.83;;;1.73;;
4597;SDS011;2311;48.646;8.906;2022-07-01T09:17:40;2.80;;;1.50;;
4597;SDS011;2311;48.646;8.906;2022-07-01T09:22:55;3.17;;;1.50;;
4597;SDS011;2311;48.646;8.906;2022-07-01T09:28:07;2.33;;;1.47;;
4597;SDS011;2311;48.646;8.906;2022-07-01T09:33:14;4.17;;;1.63;;
4597;SDS011;2311;48.646;8.906;2022-07-01T09:38:19;2.57;;;1.50;;
4597;SDS011;2311;48.646;8.906;2022-07-01T09:43:31;2.50;;;1.50;;
4597;SDS011;2311;48.646;8.906;2022-07-01T09:53:34;5.23;;;1.90;;
4597;SDS011;2311;48.646;8.906;2022-07-01T09:58:34;4.00;;;1.80;;
4597;SDS011;2311;48.646;8.906;2022-07-01T10:03:38;3.30;;;1.77;;
4597;SDS011;2311;48.646;8.906;2022-07-01T10:08:46;7.60;;;1.80;;
4597;SDS011;2311;48.646;8.906;2022-07-01T10:13:56;2.37;;;1.67;;
4597;SDS011;2311;48.646;8.906;2022-07-01T10:18:57;2.37;;;1.70;;
4597;SDS011;2311;48.646;8.906;2022-07-01T10:24:10;2.93;;;1.80;;
4597;SDS011;2311;48.646;8.906;2022-07-01T10:29:32;2.33;;;1.60;;
4597;SDS011;2311;48.646;8.906;2022-07-01T10:34:37;2.57;;;1.40;;
4597;SDS011;2311;48.646;8.906;2022-07-01T10:45:06;2.83;;;1.80;;
4597;SDS011;2311;48.646;8.906;2022-07-01T10:50:12;2.90;;;1.70;;
4597;SDS011;2311;48.646;8.906;2022-07-01T10:55:15;4.23;;;2.00;;
4597;SDS011;2311;48.646;8.906;2022-07-01T11:05:16;2.50;;;1.50;;
4597;SDS011;2311;48.646;8.906;2022-07-01T11:10:16;2.20;;;1.53;;
4597;SDS011;2311;48.646;8.906;2022-07-01T11:15:18;4.33;;;2.10;;
4597;SDS011;2311;48.646;8.906;2022-07-01T11:20:21;3.33;;;1.60;;
4597;SDS011;2311;48.646;8.906;2022-07-01T11:25:22;3.87;;;2.20;;
4597;SDS011;2311;48.646;8.906;2022-07-01T11:30:23;2.40;;;1.83;;
4597;SDS011;2311;48.646;8.906;2022-07-01T11:35:30;3.87;;;1.80;;
4597;SDS011;2311;48.646;8.906;2022-07-01T11:40:50;2.90;;;1.80;;
4597;SDS011;2311;48.646;8.906;2022-07-01T11:45:51;2.47;;;1.63;;
4597;SDS011;2311;48.646;8.906;2022-07-01T11:50:52;3.83;;;2.10;;
4597;SDS011;2311;48.646;8.906;2022-07-01T11:55:52;3.20;;;1.97;;
4597;SDS011;2311;48.646;8.906;2022-07-01T12:00:53;2.33;;;1.53;;
4597;SDS011;2311;48.646;8.906;2022-07-01T12:05:53;3.27;;;1.87;;
4597;SDS011;2311;48.646;8.906;2022-07-01T12:10:54;3.07;;;1.80;;
4597;SDS011;2311;48.646;8.906;2022-07-01T12:16:07;3.17;;;1.70;;
4597;SDS011;2311;48.646;8.906;2022-07-01T12:21:09;2.83;;;1.53;;
4597;SDS011;2311;48.646;8.906;2022-07-01T12:26:09;3.50;;;1.83;;
4597;SDS011;2311;48.646;8.906;2022-07-01T12:31:10;2.93;;;1.70;;
4597;SDS011;2311;48.646;8.906;2022-07-01T12:36:10;4.10;;;2.40;;
4597;SDS011;2311;48.646;8.906;2022-07-01T12:46:28;2.37;;;1.40;;
4597;SDS011;2311;48.646;8.906;2022-07-01T12:51:32;2.83;;;1.80;;
4597;SDS011;2311;48.646;8.906;2022-07-01T12:56:33;3.40;;;1.63;;
4597;SDS011;2311;48.646;8.906;2022-07-01T13:01:33;2.50;;;1.60;;
4597;SDS011;2311;48.646;8.906;2022-07-01T13:06:33;6.53;;;1.73;;
4597;SDS011;2311;48.646;8.906;2022-07-01T13:11:34;3.30;;;1.67;;
4597;SDS011;2311;48.646;8.906;2022-07-01T13:16:34;2.23;;;1.50;;
4597;SDS011;2311;48.646;8.906;2022-07-01T13:21:35;3.13;;;1.90;;
4597;SDS011;2311;48.646;8.906;2022-07-01T13:26:37;3.07;;;1.73;;
4597;SDS011;2311;48.646;8.906;2022-07-01T13:31:39;2.33;;;1.67;;
4597;SDS011;2311;48.646;8.906;2022-07-01T13:36:40;2.97;;;1.60;;
4597;SDS011;2311;48.646;8.906;2022-07-01T13:41:40;3.27;;;1.70;;
4597;SDS011;2311;48.646;8.906;2022-07-01T13:46:40;3.53;;;1.97;;
4597;SDS011;2311;48.646;8.906;2022-07-01T13:51:41;2.60;;;1.60;;
4597;SDS011;2311;48.646;8.906;2022-07-01T13:56:42;2.93;;;1.73;;
4597;SDS011;2311;48.646;8.906;2022-07-01T14:01:42;2.57;;;1.70;;
4597;SDS011;2311;48.646;8.906;2022-07-01T14:06:43;2.37;;;1.40;;
4597;SDS011;2311;48.646;8.906;2022-07-01T14:11:43;7.70;;;1.80;;
4597;SDS011;2311;48.646;8.906;2022-07-01T14:16:45;2.50;;;1.60;;
4597;SDS011;2311;48.646;8.906;2022-07-01T14:21:46;3.20;;;1.67;;
4597;SDS011;2311;48.646;8.906;2022-07-01T14:26:46;2.10;;;1.40;;
4597;SDS011;2311;48.646;8.906;2022-07-01T14:31:47;6.80;;;1.70;;
4597;SDS011;2311;48.646;8.906;2022-07-01T14:36:47;2.90;;;1.80;;
4597;SDS011;2311;48.646;8.906;2022-07-01T14:41:48;2.73;;;1.63;;
4597;SDS011;2311;48.646;8.906;2022-07-01T14:46:50;2.50;;;1.73;;
4597;SDS011;2311;48.646;8.906;2022-07-01T14:51:51;2.90;;;1.60;;
4597;SDS011;2311;48.646;8.906;2022-07-01T14:56:52;2.90;;;1.60;;
4597;SDS011;2311;48.646;8.906;2022-07-01T15:01:52;2.90;;;1.60;;
4597;SDS011;2311;48.646;8.906;2022-07-01T15:06:55;2.77;;;1.70;;
4597;SDS011;2311;48.646;8.906;2022-07-01T15:11:56;3.20;;;1.70;;
4597;SDS011;2311;48.646;8.906;2022-07-01T15:16:56;3.20;;;1.77;;
4597;SDS011;2311;48.646;8.906;2022-07-01T15:21:58;2.50;;;1.80;;
4597;SDS011;2311;48.646;8.906;2022-07-01T15:26:58;3.40;;;1.50;;
4597;SDS011;2311;48.646;8.906;2022-07-01T15:31:59;3.37;;;1.70;;
4597;SDS011;2311;48.646;8.906;2022-07-01T15:37:00;2.20;;;1.40;;
4597;SDS011;2311;48.646;8.906;2022-07-01T15:42:00;2.50;;;1.43;;
4597;SDS011;2311;48.646;8.906;2022-07-01T15:47:02;2.73;;;1.67;;
4597;SDS011;2311;48.646;8.906;2022-07-01T15:52:23;2.63;;;1.60;;
4597;SDS011;2311;48.646;8.906;2022-07-01T15:57:23;2.93;;;1.50;;
4597;SDS011;2311;48.646;8.906;2022-07-01T16:02:24;2.57;;;1.63;;
4597;SDS011;2311;48.646;8.906;2022-07-01T16:07:24;2.70;;;1.57;;
4597;SDS011;2311;48.646;8.906;2022-07-01T16:12:25;3.33;;;1.40;;
4597;SDS011;2311;48.646;8.906;2022-07-01T16:17:26;6.30;;;1.70;;
4597;SDS011;2311;48.646;8.906;2022-07-01T16:22:29;2.20;;;1.20;;
4597;SDS011;2311;48.646;8.906;2022-07-01T16:27:31;2.50;;;1.47;;
4597;SDS011;2311;48.646;8.906;2022-07-01T16:32:36;2.80;;;1.60;;
4597;SDS011;2311;48.646;8.906;2022-07-01T16:37:38;4.53;;;1.70;;
4597;SDS011;2311;48.646;8.906;2022-07-01T16:42:48;2.60;;;1.43;;
4597;SDS011;2311;48.646;8.906;2022-07-01T16:47:49;2.67;;;1.70;;
4597;SDS011;2311;48.646;8.906;2022-07-01T16:52:54;3.23;;;1.83;;
4597;SDS011;2311;48.646;8.906;2022-07-01T16:57:57;2.77;;;1.57;;
4597;SDS011;2311;48.646;8.906;2022-07-01T17:03:00;2.30;;;1.40;;
4597;SDS011;2311;48.646;8.906;2022-07-01T17:08:04;2.30;;;1.53;;
4597;SDS011;2311;48.646;8.906;2022-07-01T17:13:04;4.93;;;1.67;;
4597;SDS011;2311;48.646;8.906;2022-07-01T17:18:06;2.50;;;1.60;;
4597;SDS011;2311;48.646;8.906;2022-07-01T17:23:13;4.23;;;1.50;;
4597;SDS011;2311;48.646;8.906;2022-07-01T17:33:41;3.27;;;1.60;;
4597;SDS011;2311;48.646;8.906;2022-07-01T17:38:46;4.00;;;1.63;;
4597;SDS011;2311;48.646;8.906;2022-07-01T17:43:49;3.77;;;1.90;;
4597;SDS011;2311;48.646;8.906;2022-07-01T17:48:57;6.20;;;1.70;;
4597;SDS011;2311;48.646;8.906;2022-07-01T17:54:00;2.20;;;1.50;;
4597;SDS011;2311;48.646;8.906;2022-07-01T17:59:02;2.50;;;1.60;;
4597;SDS011;2311;48.646;8.906;2022-07-01T18:04:04;2.30;;;1.37;;
4597;SDS011;2311;48.646;8.906;2022-07-01T18:09:05;2.33;;;1.40;;
4597;SDS011;2311;48.646;8.906;2022-07-01T18:14:11;4.17;;;1.53;;
4597;SDS011;2311;48.646;8.906;2022-07-01T18:19:26;2.30;;;1.30;;
4597;SDS011;2311;48.646;8.906;2022-07-01T18:24:35;3.07;;;1.70;;
4597;SDS011;2311;48.646;8.906;2022-07-01T18:29:38;2.07;;;1.47;;
4597;SDS011;2311;48.646;8.906;2022-07-01T18:34:56;2.63;;;1.60;;
4597;SDS011;2311;48.646;8.906;2022-07-01T18:39:59;2.83;;;1.60;;
4597;SDS011;2311;48.646;8.906;2022-07-01T18:45:00;2.27;;;1.50;;
4597;SDS011;2311;48.646;8.906;2022-07-01T18:50:02;2.87;;;1.67;;
4597;SDS011;2311;48.646;8.906;2022-07-01T18:55:04;3.53;;;1.60;;
4597;SDS011;2311;48.646;8.906;2022-07-01T19:00:07;2.70;;;1.37;;
4597;SDS011;2311;48.646;8.906;2022-07-01T19:05:08;2.60;;;1.70;;
4597;SDS011;2311;48.646;8.906;2022-07-01T19:10:10;2.23;;;1.53;;
4597;SDS011;2311;48.646;8.906;2022-07-01T19:15:10;4.20;;;2.20;;
4597;SDS011;2311;48.646;8.906;2022-07-01T19:20:11;3.33;;;2.00;;
4597;SDS011;2311;48.646;8.906;2022-07-01T19:25:12;2.90;;;1.80;;
4597;SDS011;2311;48.646;8.906;2022-07-01T19:30:12;2.70;;;1.63;;
4597;SDS011;2311;48.646;8.906;2022-07-01T19:35:13;2.97;;;1.70;;
4597;SDS011;2311;48.646;8.906;2022-07-01T19:40:13;3.40;;;2.20;;
4597;SDS011;2311;48.646;8.906;2022-07-01T19:45:13;4.27;;;2.67;;
4597;SDS011;2311;48.646;8.906;2022-07-01T19:50:15;5.07;;;2.83;;
4597;SDS011;2311;48.646;8.906;2022-07-01T19:55:15;6.90;;;4.17;;
4597;SDS011;2311;48.646;8.906;2022-07-01T20:00:16;6.40;;;2.87;;
4597;SDS011;2311;48.646;8.906;2022-07-01T20:05:17;5.17;;;2.70;;
4597;SDS011;2311;48.646;8.906;2022-07-01T20:10:17;11.70;;;4.93;;
4597;SDS011;2311;48.646;8.906;2022-07-01T20:15:17;8.50;;;4.90;;
4597;SDS011;2311;48.646;8.906;2022-07-01T20:20:18;10.10;;;5.20;;
4597;SDS011;2311;48.646;8.906;2022-07-01T20:25:18;10.50;;;5.00;;
4597;SDS011;2311;48.646;8.906;2022-07-01T20:30:19;4.63;;;2.67;;
4597;SDS011;2311;48.646;8.906;2022-07-01T20:35:19;4.70;;;2.43;;
4597;SDS011;2311;48.646;8.906;2022-07-01T20:40:20;11.10;;;3.00;;
4597;SDS011;2311;48.646;8.906;2022-07-01T20:45:21;4.37;;;2.10;;
4597;SDS011;2311;48.646;8.906;2022-07-01T20:50:21;3.47;;;2.20;;
4597;SDS011;2311;48.646;8.906;2022-07-01T20:55:22;3.50;;;2.30;;
4597;SDS011;2311;48.646;8.906;2022-07-01T21:00:22;4.97;;;2.20;;
4597;SDS011;2311;48.646;8.906;2022-07-01T21:05:23;3.53;;;2.13;;
4597;SDS011;2311;48.646;8.906;2022-07-01T21:10:24;6.00;;;2.60;;
4597;SDS011;2311;48.646;8.906;2022-07-01T21:15:24;3.40;;;2.10;;
4597;SDS011;2311;48.646;8.906;2022-07-01T21:20:26;4.90;;;2.40;;
4597;SDS011;2311;48.646;8.906;2022-07-01T21:25:27;4.33;;;2.47;;
4597;SDS011;2311;48.646;8.906;2022-07-01T21:30:28;5.63;;;2.40;;
4597;SDS011;2311;48.646;8.906;2022-07-01T21:35:28;3.63;;;2.27;;
4597;SDS011;2311;48.646;8.906;2022-07-01T21:40:29;6.87;;;2.90;;
4597;SDS011;2311;48.646;8.906;2022-07-01T21:45:30;4.03;;;2.00;;
4597;SDS011;2311;48.646;8.906;2022-07-01T21:50:30;4.20;;;2.37;;
4597;SDS011;2311;48.646;8.906;2022-07-01T21:55:31;3.70;;;2.30;;
4597;SDS011;2311;48.646;8.906;2022-07-01T22:00:32;4.40;;;2.57;;
4597;SDS011;2311;48.646;8.906;2022-07-01T22:05:33;3.90;;;2.33;;
4597;SDS011;2311;48.646;8.906;2022-07-01T22:11:02;4.07;;;2.50;;
4597;SDS011;2311;48.646;8.906;2022-07-01T22:16:04;4.00;;;2.30;;
4597;SDS011;2311;48.646;8.906;2022-07-01T22:21:05;11.17;;;2.50;;
4597;SDS011;2311;48.646;8.906;2022-07-01T22:26:11;3.00;;;2.00;;
4597;SDS011;2311;48.646;8.906;2022-07-01T22:31:12;3.10;;;2.10;;
4597;SDS011;2311;48.646;8.906;2022-07-01T22:36:13;2.97;;;2.00;;
4597;SDS011;2311;48.646;8.906;2022-07-01T22:41:14;3.33;;;2.20;;
4597;SDS011;2311;48.646;8.906;2022-07-01T22:46:20;5.43;;;2.20;;
4597;SDS011;2311;48.646;8.906;2022-07-01T22:56:38;3.93;;;2.10;;
4597;SDS011;2311;48.646;8.906;2022-07-01T23:01:39;13.73;;;2.20;;
4597;SDS011;2311;48.646;8.906;2022-07-01T23:11:55;5.47;;;2.77;;
4597;SDS011;2311;48.646;8.906;2022-07-01T23:16:59;4.00;;;2.53;;
4597;SDS011;2311;48.646;8.906;2022-07-01T23:22:00;2.90;;;2.20;;
4597;SDS011;2311;48.646;8.906;2022-07-01T23:27:02;3.30;;;2.03;;
4597;SDS011;2311;48.646;8.906;2022-07-01T23:32:04;4.17;;;2.10;;
4597;SDS011;2311;48.646;8.906;2022-07-01T23:37:05;2.57;;;1.90;;
4597;SDS011;2311;48.646;8.906;2022-07-01T23:42:06;5.17;;;2.50;;
4597;SDS011;2311;48.646;8.906;2022-07-01T23:47:06;3.13;;;2.10;;
4597;SDS011;2311;48.646;8.906;2022-07-01T23:52:11;3.87;;;2.27;;
4597;SDS011;2311;48.646;8.906;2022-07-01T23:57:11;7.30;;;2.40;;
